Time;durP1;ratioP1;P1;durP2;ratioP2;P2;SDS_P1;SDS_P2;PMS_P1;PMS_P2;Temp;Humidity;BMP_temperature;BMP_pressure;BME280_temperature;BME280_humidity;BME280_pressure;Samples;Min_cycle;Max_cycle;Signal;HPM_P1;HPM_P2
2024/01/18 00:01:32;;;;;;;25.20;13.77;;;3.50;98.10;;;;;;4997950;28;20089;-76
2024/01/18 00:03:59;;;;;;;21.52;12.70;;;3.50;98.10;;;;;;4997698;28;20455;-76
2024/01/18 00:06:25;;;;;;;21.35;12.98;;;3.50;98.10;;;;;;4981878;28;20125;-75
2024/01/18 00:08:51;;;;;;;19.88;12.30;;;3.50;98.00;;;;;;4982235;28;20030;-76
2024/01/18 00:11:16;;;;;;;22.13;13.20;;;3.60;98.00;;;;;;4998468;28;20088;-75
2024/01/18 00:13:43;;;;;;;20.92;12.45;;;3.60;98.00;;;;;;4997490;28;20475;-76
2024/01/18 00:16:09;;;;;;;21.35;13.13;;;3.60;98.00;;;;;;5015085;28;20063;-76
2024/01/18 00:18:35;;;;;;;20.17;12.52;;;3.60;97.90;;;;;;4997457;28;20069;-75
2024/01/18 00:21:01;;;;;;;18.58;12.13;;;3.60;98.10;;;;;;5015048;28;20030;-75
2024/01/18 00:23:26;;;;;;;17.58;11.68;;;3.70;97.80;;;;;;4997534;28;20030;-77
2024/01/18 00:25:52;;;;;;;20.35;12.90;;;3.70;97.80;;;;;;5014647;28;20474;-76
2024/01/18 00:28:18;;;;;;;21.30;13.05;;;3.70;97.70;;;;;;5014721;28;20026;-75
2024/01/18 00:30:43;;;;;;;18.42;12.57;;;3.70;97.70;;;;;;4997142;28;20449;-76
2024/01/18 00:33:09;;;;;;;20.45;13.18;;;3.70;97.70;;;;;;4997302;28;20449;-76
2024/01/18 00:35:35;;;;;;;18.77;12.63;;;3.70;97.70;;;;;;4997208;28;20034;-76
2024/01/18 00:38:00;;;;;;;19.30;11.95;;;3.70;97.70;;;;;;4996949;28;20048;-75
2024/01/18 00:40:26;;;;;;;20.13;12.80;;;3.70;97.70;;;;;;5014592;28;20029;-76
2024/01/18 00:42:52;;;;;;;22.85;13.15;;;3.70;97.70;;;;;;4997052;28;20040;-76
2024/01/18 00:45:17;;;;;;;21.30;12.43;;;3.70;97.70;;;;;;4996900;28;20104;-75
2024/01/18 00:47:44;;;;;;;23.70;13.52;;;3.70;97.60;;;;;;5014531;28;20433;-76
2024/01/18 00:50:10;;;;;;;20.70;12.90;;;3.70;97.70;;;;;;5014623;28;20092;-76
2024/01/18 00:52:35;;;;;;;22.27;13.38;;;3.70;97.70;;;;;;5014204;28;20034;-76
2024/01/18 00:55:01;;;;;;;21.85;14.00;;;3.70;97.70;;;;;;5014410;28;20382;-75
2024/01/18 00:57:28;;;;;;;20.48;13.13;;;3.70;97.70;;;;;;5014781;28;20478;-76
2024/01/18 00:59:56;;;;;;;20.20;12.90;;;3.70;97.80;;;;;;4996897;28;20481;-75
2024/01/18 01:02:22;;;;;;;26.30;14.48;;;3.70;97.90;;;;;;4996972;28;20037;-76
2024/01/18 01:04:47;;;;;;;24.42;13.98;;;3.60;97.80;;;;;;4995207;28;20038;-75
2024/01/18 01:07:13;;;;;;;24.65;15.48;;;3.70;97.90;;;;;;4996881;28;20092;-76
2024/01/18 01:09:38;;;;;;;28.50;15.88;;;3.60;97.90;;;;;;4992942;28;20101;-76
2024/01/18 01:12:04;;;;;;;23.85;15.65;;;3.60;97.90;;;;;;4976880;28;20061;-75
2024/01/18 01:14:30;;;;;;;22.50;14.02;;;3.60;97.90;;;;;;4977566;28;20034;-75
2024/01/18 01:16:56;;;;;;;23.98;14.88;;;3.50;98.00;;;;;;4994793;28;20035;-75
2024/01/18 01:19:21;;;;;;;28.13;14.20;;;3.50;98.10;;;;;;4994340;28;20475;-76
2024/01/18 01:21:47;;;;;;;27.35;16.48;;;3.50;98.10;;;;;;4977011;28;20479;-75
2024/01/18 01:24:13;;;;;;;28.77;17.02;;;3.50;98.10;;;;;;4977056;28;20030;-75
2024/01/18 01:26:38;;;;;;;29.52;17.88;;;3.40;98.30;;;;;;4976931;28;20034;-75
2024/01/18 01:29:05;;;;;;;28.48;17.10;;;3.20;98.60;;;;;;4992909;28;20030;-76
2024/01/18 01:31:30;;;;;;;28.88;17.17;;;3.10;98.90;;;;;;4993034;28;20030;-75
2024/01/18 01:33:56;;;;;;;26.98;17.35;;;3.00;99.20;;;;;;4994046;28;20130;-75
2024/01/18 01:36:22;;;;;;;29.65;17.75;;;2.90;99.50;;;;;;4992887;28;20065;-76
2024/01/18 01:38:48;;;;;;;27.45;16.83;;;2.80;99.80;;;;;;4977376;28;20416;-75
2024/01/18 01:41:14;;;;;;;25.83;16.08;;;2.70;99.90;;;;;;4992873;28;20033;-75
2024/01/18 01:43:58;;;;;;;29.58;16.40;;;2.80;99.90;;;;;;4994110;28;20050;-76
2024/01/18 01:46:25;;;;;;;26.00;16.33;;;2.90;99.90;;;;;;4993372;28;20375;-76
2024/01/18 01:48:51;;;;;;;26.83;16.42;;;3.00;99.90;;;;;;4960277;28;20372;-76
2024/01/18 01:51:18;;;;;;;26.83;16.73;;;3.00;99.80;;;;;;4994442;28;20031;-76
2024/01/18 01:53:43;;;;;;;23.70;16.63;;;3.00;99.80;;;;;;4960259;28;20041;-76
2024/01/18 01:56:09;;;;;;;24.08;16.48;;;2.90;99.90;;;;;;4960986;28;20042;-77
2024/01/18 01:58:36;;;;;;;23.50;16.02;;;2.90;99.90;;;;;;4960530;28;20038;-77
2024/01/18 02:01:02;;;;;;;24.58;13.68;;;3.00;99.90;;;;;;4977090;28;20069;-77
2024/01/18 02:03:28;;;;;;;30.58;17.05;;;3.00;99.90;;;;;;4993103;28;20104;-77
2024/01/18 02:05:55;;;;;;;25.67;15.50;;;3.10;99.90;;;;;;4960478;28;20038;-76
2024/01/18 02:08:22;;;;;;;35.38;16.90;;;3.00;99.90;;;;;;4992660;28;20488;-77
2024/01/18 02:10:48;;;;;;;24.92;15.93;;;3.00;99.90;;;;;;4976590;28;20050;-77
2024/01/18 02:13:15;;;;;;;26.70;15.57;;;2.90;99.90;;;;;;4993643;28;20057;-76
2024/01/18 02:15:41;;;;;;;32.03;17.27;;;2.90;99.90;;;;;;4977497;28;20034;-76
2024/01/18 02:18:07;;;;;;;27.23;16.67;;;2.90;99.90;;;;;;4994826;28;20534;-76
2024/01/18 02:20:33;;;;;;;28.48;17.08;;;2.90;99.90;;;;;;4993923;28;20145;-76
2024/01/18 02:22:59;;;;;;;25.75;17.13;;;2.80;99.90;;;;;;4992521;28;20058;-76
2024/01/18 02:25:27;;;;;;;29.52;16.75;;;2.60;99.90;;;;;;4975886;28;20038;-75
2024/01/18 02:27:57;;;;;;;27.80;17.55;;;2.60;99.90;;;;;;4976511;28;20045;-76
2024/01/18 02:30:23;;;;;;;30.58;17.33;;;2.50;99.90;;;;;;4992123;28;20101;-76
2024/01/18 02:32:49;;;;;;;28.05;16.80;;;2.50;99.90;;;;;;4992218;28;20109;-76
2024/01/18 02:35:15;;;;;;;26.10;15.98;;;2.50;99.90;;;;;;4991941;28;20034;-76
2024/01/18 02:37:41;;;;;;;29.70;16.33;;;2.50;99.90;;;;;;4991871;28;20030;-75
2024/01/18 02:40:07;;;;;;;28.60;16.85;;;2.60;99.90;;;;;;4992377;28;20438;-75
2024/01/18 02:42:33;;;;;;;27.85;15.50;;;2.60;99.90;;;;;;4992103;28;20058;-75
2024/01/18 02:45:02;;;;;;;25.02;15.30;;;2.60;99.90;;;;;;4991834;28;20038;-76
2024/01/18 02:47:28;;;;;;;26.23;15.75;;;2.50;99.90;;;;;;4991905;28;20494;-76
2024/01/18 02:49:58;;;;;;;27.05;16.30;;;2.50;99.90;;;;;;4975665;28;20442;-76
2024/01/18 02:52:24;;;;;;;26.17;17.00;;;2.50;99.90;;;;;;4975520;28;20034;-75
2024/01/18 02:54:49;;;;;;;24.10;15.93;;;2.50;99.90;;;;;;4992638;28;20486;-76
2024/01/18 02:57:15;;;;;;;25.98;15.48;;;2.60;99.90;;;;;;4991711;28;20038;-75
2024/01/18 02:59:41;;;;;;;26.23;16.02;;;2.60;99.90;;;;;;4993298;28;20042;-75
2024/01/18 03:02:07;;;;;;;27.48;16.13;;;2.60;99.90;;;;;;4975119;28;20057;-76
2024/01/18 03:04:33;;;;;;;25.75;16.30;;;2.60;99.90;;;;;;4993064;28;20027;-75
2024/01/18 03:06:58;;;;;;;27.23;15.30;;;2.60;99.90;;;;;;4975958;28;20046;-75
2024/01/18 03:09:24;;;;;;;21.58;13.68;;;2.60;99.90;;;;;;4976657;28;20397;-75
2024/01/18 03:11:50;;;;;;;22.17;13.07;;;2.70;99.90;;;;;;4994508;28;20132;-75
2024/01/18 03:14:15;;;;;;;22.13;13.23;;;2.80;99.90;;;;;;4978792;28;20520;-76
2024/01/18 03:16:43;;;;;;;21.08;13.70;;;2.70;99.90;;;;;;4994531;28;20469;-75
2024/01/18 03:19:12;;;;;;;20.20;11.77;;;2.80;99.90;;;;;;5012626;28;20121;-76
2024/01/18 03:21:39;;;;;;;21.50;13.05;;;2.80;99.90;;;;;;4995060;28;20070;-75
2024/01/18 03:24:06;;;;;;;22.17;12.55;;;2.80;99.90;;;;;;5012212;28;20034;-75
2024/01/18 03:26:32;;;;;;;19.38;12.20;;;2.80;99.90;;;;;;4978653;28;20455;-76
2024/01/18 03:28:58;;;;;;;20.40;12.27;;;2.80;99.90;;;;;;4964244;28;20034;-76
2024/01/18 03:31:23;;;;;;;27.25;12.75;;;2.70;99.90;;;;;;4998393;28;20056;-76
2024/01/18 03:33:49;;;;;;;23.60;12.18;;;2.70;99.90;;;;;;4981379;28;20176;-76
2024/01/18 03:36:15;;;;;;;19.35;10.88;;;2.60;99.90;;;;;;4997811;28;20109;-76
2024/01/18 03:38:40;;;;;;;22.38;12.18;;;2.60;99.90;;;;;;4966305;28;20053;-76
2024/01/18 03:41:06;;;;;;;19.20;10.77;;;2.50;99.90;;;;;;4981556;28;20030;-75
2024/01/18 03:43:32;;;;;;;12.80;9.02;;;2.60;99.90;;;;;;4997708;28;20108;-76
2024/01/18 03:45:57;;;;;;;19.25;9.75;;;2.70;99.90;;;;;;5015308;28;20038;-76
2024/01/18 03:48:23;;;;;;;19.48;9.48;;;2.70;99.90;;;;;;4998051;28;20042;-75
2024/01/18 03:50:49;;;;;;;16.85;9.55;;;2.70;99.90;;;;;;4997671;28;20037;-75
2024/01/18 03:53:14;;;;;;;19.95;9.52;;;2.80;99.90;;;;;;4997401;28;20038;-74
2024/01/18 03:55:41;;;;;;;15.57;9.70;;;2.80;99.90;;;;;;4997357;28;20113;-75
2024/01/18 03:58:07;;;;;;;19.45;10.30;;;2.80;99.90;;;;;;4997870;28;20033;-75
2024/01/18 04:00:32;;;;;;;20.50;10.45;;;2.70;99.90;;;;;;4997410;28;20034;-75
2024/01/18 04:02:58;;;;;;;16.85;10.05;;;2.70;99.90;;;;;;4981283;28;20029;-75
2024/01/18 04:05:24;;;;;;;18.30;9.57;;;2.60;99.90;;;;;;4996898;28;20037;-76
2024/01/18 04:07:49;;;;;;;17.58;10.85;;;2.50;99.90;;;;;;4997002;28;20030;-75
2024/01/18 04:10:15;;;;;;;14.70;8.90;;;2.50;99.90;;;;;;4981216;28;20041;-75
2024/01/18 04:12:42;;;;;;;21.25;11.32;;;2.40;99.90;;;;;;4997107;28;20038;-76
2024/01/18 04:15:09;;;;;;;19.15;11.23;;;2.40;99.90;;;;;;4981360;28;20033;-76
2024/01/18 04:17:34;;;;;;;19.10;10.68;;;2.40;99.90;;;;;;4980891;28;20045;-76
2024/01/18 04:20:00;;;;;;;19.48;11.10;;;2.40;99.90;;;;;;4996809;28;20030;-76
2024/01/18 04:22:26;;;;;;;17.40;9.82;;;2.50;99.90;;;;;;4997214;28;20108;-76
2024/01/18 04:24:52;;;;;;;17.98;11.05;;;2.50;99.90;;;;;;4980472;28;20452;-75
2024/01/18 04:27:17;;;;;;;16.35;9.10;;;2.50;99.90;;;;;;4997195;28;20276;-76
2024/01/18 04:29:43;;;;;;;21.05;10.95;;;2.60;99.90;;;;;;4996695;28;20030;-76
2024/01/18 04:32:09;;;;;;;18.45;9.35;;;2.60;99.90;;;;;;4996988;28;20029;-75
2024/01/18 04:34:34;;;;;;;17.50;9.45;;;2.60;99.90;;;;;;4964603;28;20037;-76
2024/01/18 04:37:00;;;;;;;15.75;9.27;;;2.60;99.90;;;;;;5014692;28;20030;-76
2024/01/18 04:39:27;;;;;;;15.02;9.48;;;2.50;99.90;;;;;;4980662;28;20034;-76
2024/01/18 04:41:52;;;;;;;16.30;9.90;;;2.50;99.90;;;;;;4997143;28;20084;-76
2024/01/18 04:44:18;;;;;;;15.52;9.02;;;2.40;99.90;;;;;;5014405;28;20033;-76
2024/01/18 04:46:44;;;;;;;25.48;9.30;;;2.30;99.90;;;;;;4980112;28;20057;-76
2024/01/18 04:49:10;;;;;;;16.27;9.02;;;2.40;99.90;;;;;;5014566;28;20032;-76
2024/01/18 04:51:35;;;;;;;17.45;10.05;;;2.50;99.90;;;;;;4996458;28;20068;-76
2024/01/18 04:54:01;;;;;;;18.52;9.77;;;2.50;99.90;;;;;;4981030;28;20539;-76
2024/01/18 04:56:27;;;;;;;17.60;9.57;;;2.40;99.90;;;;;;4980910;28;20030;-76
2024/01/18 04:58:53;;;;;;;16.35;9.43;;;2.30;99.90;;;;;;5014220;28;20064;-77
2024/01/18 05:01:19;;;;;;;15.70;9.20;;;2.30;99.90;;;;;;4996793;28;20041;-76
2024/01/18 05:03:45;;;;;;;17.33;8.27;;;2.30;99.90;;;;;;4981094;28;20034;-77
2024/01/18 05:06:11;;;;;;;17.48;9.13;;;2.40;99.90;;;;;;4997060;28;20038;-76
2024/01/18 05:08:37;;;;;;;13.80;7.70;;;2.40;99.90;;;;;;4997443;28;20034;-77
2024/01/18 05:11:02;;;;;;;15.80;8.25;;;2.40;99.90;;;;;;4982774;28;20076;-75
2024/01/18 05:13:28;;;;;;;14.75;8.20;;;2.30;99.90;;;;;;5000446;28;20042;-76
2024/01/18 05:15:55;;;;;;;14.32;7.75;;;2.30;99.90;;;;;;4998842;28;20481;-76
2024/01/18 05:18:21;;;;;;;16.10;7.57;;;2.40;99.90;;;;;;4996735;28;20113;-76
2024/01/18 05:20:47;;;;;;;13.23;7.40;;;2.30;99.90;;;;;;4996787;28;20066;-77
2024/01/18 05:23:12;;;;;;;15.55;8.32;;;2.30;99.90;;;;;;4996457;28;20029;-76
2024/01/18 05:25:38;;;;;;;15.73;8.40;;;2.20;99.90;;;;;;4980277;28;20038;-76
2024/01/18 05:28:04;;;;;;;13.50;7.80;;;2.10;99.90;;;;;;4980084;28;20542;-76
2024/01/18 05:30:29;;;;;;;12.85;7.07;;;2.00;99.90;;;;;;4980299;28;20034;-76
2024/01/18 05:32:55;;;;;;;16.23;7.82;;;2.00;99.90;;;;;;4964006;28;20586;-77
2024/01/18 05:35:21;;;;;;;13.30;7.13;;;2.10;99.90;;;;;;4963552;28;20072;-76
2024/01/18 05:37:46;;;;;;;13.45;7.53;;;2.20;99.90;;;;;;4995638;28;20053;-76
2024/01/18 05:40:12;;;;;;;21.27;9.18;;;2.30;99.90;;;;;;5013393;28;20132;-76
2024/01/18 05:42:38;;;;;;;13.80;7.35;;;2.30;99.90;;;;;;4995588;28;20034;-77
2024/01/18 05:45:05;;;;;;;15.00;7.47;;;2.30;99.90;;;;;;4979285;28;20073;-76
2024/01/18 05:47:31;;;;;;;13.38;7.45;;;2.10;99.90;;;;;;4995524;28;20479;-76
2024/01/18 05:49:57;;;;;;;15.70;6.93;;;2.20;99.90;;;;;;5013491;28;20080;-76
2024/01/18 05:52:22;;;;;;;18.10;6.72;;;2.10;99.90;;;;;;4963385;28;20030;-76
2024/01/18 05:54:48;;;;;;;12.82;6.95;;;2.20;99.90;;;;;;5012866;28;20080;-76
2024/01/18 05:57:14;;;;;;;14.70;6.35;;;2.20;99.90;;;;;;4963892;28;20088;-76
2024/01/18 05:59:39;;;;;;;13.20;6.68;;;2.20;99.90;;;;;;4995238;28;20034;-75
2024/01/18 06:02:05;;;;;;;10.85;6.00;;;2.20;99.90;;;;;;4994928;28;20121;-76
2024/01/18 06:04:30;;;;;;;13.65;6.75;;;2.10;99.90;;;;;;4979069;28;20084;-76
2024/01/18 06:06:57;;;;;;;10.07;6.72;;;2.10;99.90;;;;;;4995154;28;20482;-76
2024/01/18 06:09:23;;;;;;;16.05;6.63;;;2.00;99.90;;;;;;4994827;28;20030;-76
2024/01/18 06:11:49;;;;;;;11.02;7.05;;;2.00;99.90;;;;;;4979259;28;20060;-76
2024/01/18 06:14:15;;;;;;;14.48;6.75;;;2.00;99.90;;;;;;4995394;28;20432;-76
2024/01/18 06:16:41;;;;;;;12.20;6.50;;;2.00;99.90;;;;;;4995523;28;20054;-75
2024/01/18 06:19:07;;;;;;;18.23;7.10;;;2.00;99.90;;;;;;4962928;28;20026;-76
2024/01/18 06:21:33;;;;;;;13.18;6.93;;;2.10;99.90;;;;;;4995407;28;20070;-76
2024/01/18 06:23:59;;;;;;;13.57;6.47;;;2.10;99.90;;;;;;4994937;28;20034;-76
2024/01/18 06:26:24;;;;;;;14.88;6.28;;;2.00;99.90;;;;;;4995637;28;20124;-76
2024/01/18 06:28:50;;;;;;;18.67;6.53;;;1.90;99.90;;;;;;4994852;28;20447;-76
2024/01/18 06:31:18;;;;;;;11.88;6.35;;;1.90;99.90;;;;;;4979116;28;20104;-77
2024/01/18 06:33:43;;;;;;;11.70;5.85;;;1.80;99.90;;;;;;4979516;28;20030;-77
2024/01/18 06:36:09;;;;;;;11.25;5.68;;;1.80;99.90;;;;;;4978738;28;20573;-77
2024/01/18 06:38:35;;;;;;;11.90;6.25;;;1.80;99.90;;;;;;4994928;28;20033;-77
2024/01/18 06:41:01;;;;;;;14.90;7.03;;;1.80;99.90;;;;;;4979142;28;20038;-77
2024/01/18 06:43:27;;;;;;;13.95;6.53;;;1.80;99.90;;;;;;4994656;28;20462;-77
2024/01/18 06:45:55;;;;;;;17.02;7.20;;;1.80;99.90;;;;;;4979192;28;20038;-77
2024/01/18 06:48:24;;;;;;;15.48;6.47;;;1.90;99.90;;;;;;4995602;28;20041;-77
2024/01/18 06:50:53;;;;;;;11.55;5.53;;;1.90;99.90;;;;;;4978675;28;20152;-78
2024/01/18 06:53:19;;;;;;;23.38;6.68;;;1.80;99.90;;;;;;4994943;28;20026;-76
2024/01/18 06:55:45;;;;;;;7.13;3.55;;;1.80;99.90;;;;;;4995758;28;20394;-78
2024/01/18 06:58:11;;;;;;;8.60;4.53;;;1.90;99.90;;;;;;4999138;28;20030;-77
2024/01/18 07:00:36;;;;;;;8.77;4.53;;;2.30;99.90;;;;;;4987483;28;20064;-78
2024/01/18 07:03:02;;;;;;;6.22;2.17;;;2.60;99.90;;;;;;4996775;28;20026;-78
2024/01/18 07:05:28;;;;;;;3.13;1.40;;;2.90;99.90;;;;;;4987677;28;20034;-78
2024/01/18 07:07:54;;;;;;;6.03;2.50;;;3.30;99.90;;;;;;5001739;28;20481;-77
2024/01/18 07:10:22;;;;;;;5.53;2.83;;;3.70;99.90;;;;;;4967496;28;20034;-77
2024/01/18 07:12:50;;;;;;;5.57;2.45;;;3.70;99.90;;;;;;5016659;28;20037;-78
2024/01/18 07:15:16;;;;;;;7.93;2.42;;;3.60;99.90;;;;;;4982911;28;20128;-78
2024/01/18 07:17:42;;;;;;;8.57;3.08;;;3.70;99.90;;;;;;4966861;28;20072;-78
2024/01/18 07:20:08;;;;;;;6.22;2.35;;;3.80;99.90;;;;;;4967211;28;20041;-76
2024/01/18 07:22:34;;;;;;;7.97;2.95;;;4.10;99.90;;;;;;4998440;28;20482;-75
2024/01/18 07:24:59;;;;;;;8.00;2.05;;;4.10;99.90;;;;;;4982354;28;20141;-75
2024/01/18 07:27:25;;;;;;;6.03;2.20;;;4.20;99.90;;;;;;4982331;28;20041;-75
2024/01/18 07:29:51;;;;;;;5.97;2.50;;;4.40;99.90;;;;;;4982525;28;20104;-74
2024/01/18 07:32:17;;;;;;;9.48;2.83;;;4.60;99.90;;;;;;4998669;28;20138;-74
2024/01/18 07:34:44;;;;;;;6.68;3.08;;;4.70;99.90;;;;;;4998340;28;20124;-74
2024/01/18 07:37:13;;;;;;;6.82;2.78;;;4.90;99.90;;;;;;4998482;28;20048;-74
2024/01/18 07:39:39;;;;;;;5.20;2.38;;;4.90;99.90;;;;;;5015810;28;20117;-74
2024/01/18 07:42:05;;;;;;;6.35;3.15;;;5.00;99.90;;;;;;5017274;28;20069;-74
2024/01/18 07:44:31;;;;;;;11.13;3.22;;;5.10;99.90;;;;;;5017376;28;20034;-77
2024/01/18 07:46:57;;;;;;;5.22;2.58;;;5.00;99.90;;;;;;5016924;28;20072;-74
2024/01/18 07:49:22;;;;;;;9.10;3.30;;;4.90;99.90;;;;;;5016434;28;20478;-74
2024/01/18 07:51:49;;;;;;;7.50;2.95;;;5.00;99.90;;;;;;4999527;28;20022;-74
2024/01/18 07:54:15;;;;;;;8.40;2.55;;;4.90;99.90;;;;;;4999979;28;20030;-74
2024/01/18 07:56:41;;;;;;;6.60;3.28;;;5.00;99.90;;;;;;5018228;28;20018;-74
2024/01/18 07:59:07;;;;;;;7.25;3.30;;;5.00;99.90;;;;;;5018282;28;20438;-76
2024/01/18 08:01:33;;;;;;;7.68;3.65;;;4.90;99.90;;;;;;5001542;28;20034;-79
2024/01/18 08:03:59;;;;;;;6.03;3.38;;;4.90;99.90;;;;;;5006210;28;20578;-78
2024/01/18 08:06:24;;;;;;;8.73;2.95;;;4.90;99.90;;;;;;4982739;28;20057;-74
2024/01/18 08:08:50;;;;;;;5.00;3.20;;;4.90;99.90;;;;;;4981485;28;20471;-74
2024/01/18 08:11:16;;;;;;;7.75;3.65;;;4.90;99.90;;;;;;4980937;28;20066;-74
2024/01/18 08:13:42;;;;;;;7.05;3.60;;;5.00;99.90;;;;;;4997334;28;20088;-74
2024/01/18 08:16:09;;;;;;;8.55;3.97;;;5.00;99.90;;;;;;5015686;28;20033;-75
2024/01/18 08:18:38;;;;;;;11.95;5.20;;;5.10;99.90;;;;;;4997954;28;20030;-75
2024/01/18 08:21:04;;;;;;;10.40;5.32;;;5.00;99.60;;;;;;4998633;28;20033;-74
2024/01/18 08:23:30;;;;;;;11.10;4.70;;;4.70;98.10;;;;;;4997983;28;20157;-74
2024/01/18 08:25:55;;;;;;;10.68;4.85;;;4.60;98.50;;;;;;4981342;28;20053;-75
2024/01/18 08:28:22;;;;;;;10.07;4.43;;;4.70;98.70;;;;;;5015433;28;20038;-76
2024/01/18 08:30:47;;;;;;;8.30;3.88;;;4.70;98.50;;;;;;4998023;28;20026;-75
2024/01/18 08:33:18;;;;;;;9.25;3.80;;;4.80;98.80;;;;;;4997384;28;20382;-75
2024/01/18 08:35:44;;;;;;;7.13;3.30;;;4.90;98.90;;;;;;4981636;28;20038;-74
2024/01/18 08:38:09;;;;;;;10.40;3.55;;;4.90;98.80;;;;;;4997361;28;20096;-75
2024/01/18 08:40:36;;;;;;;7.63;3.30;;;5.00;98.60;;;;;;4997541;28;20130;-74
2024/01/18 08:43:02;;;;;;;5.28;2.78;;;5.10;98.60;;;;;;4997160;28;20034;-75
2024/01/18 08:45:29;;;;;;;5.18;2.50;;;5.20;98.60;;;;;;5014368;28;20496;-75
2024/01/18 08:47:54;;;;;;;10.80;3.92;;;5.30;98.80;;;;;;4981111;28;20038;-75
2024/01/18 08:50:23;;;;;;;6.13;3.00;;;5.30;98.90;;;;;;5014737;28;20389;-75
2024/01/18 08:52:52;;;;;;;9.70;3.08;;;5.40;98.40;;;;;;4997192;28;20037;-75
2024/01/18 08:55:19;;;;;;;11.30;4.05;;;5.40;98.00;;;;;;4981871;28;20113;-75
2024/01/18 08:57:45;;;;;;;7.85;2.00;;;5.40;97.80;;;;;;5014673;28;20029;-75
2024/01/18 09:00:13;;;;;;;6.47;2.65;;;5.50;97.50;;;;;;4980662;28;20091;-75
2024/01/18 09:02:42;;;;;;;6.20;2.58;;;5.40;97.50;;;;;;4981107;28;20073;-74
2024/01/18 09:05:08;;;;;;;5.63;3.30;;;5.50;97.40;;;;;;4980558;28;20080;-74
2024/01/18 09:07:34;;;;;;;9.15;4.43;;;5.60;97.40;;;;;;4964352;28;20081;-74
2024/01/18 09:10:00;;;;;;;10.35;5.25;;;5.60;97.50;;;;;;5014348;28;20026;-74
2024/01/18 09:12:26;;;;;;;9.18;4.90;;;5.70;97.40;;;;;;4996863;28;20052;-74
2024/01/18 09:14:52;;;;;;;7.47;4.82;;;5.80;97.30;;;;;;4996991;28;20467;-74
2024/01/18 09:17:18;;;;;;;11.30;5.30;;;5.80;97.10;;;;;;5014687;28;20033;-74
2024/01/18 09:19:44;;;;;;;13.30;5.28;;;5.90;97.10;;;;;;5013754;28;20112;-74
2024/01/18 09:22:10;;;;;;;9.88;4.80;;;5.90;97.00;;;;;;4980654;28;20034;-74
2024/01/18 09:24:36;;;;;;;10.82;4.72;;;5.90;96.80;;;;;;4980299;28;20026;-74
2024/01/18 09:27:01;;;;;;;9.90;5.03;;;6.00;96.80;;;;;;4979307;28;20034;-74
2024/01/18 09:29:27;;;;;;;6.38;4.38;;;6.10;96.70;;;;;;4996411;28;20030;-74
2024/01/18 09:31:53;;;;;;;10.07;4.63;;;6.10;96.60;;;;;;5013870;28;20033;-74
2024/01/18 09:34:19;;;;;;;7.25;4.25;;;6.20;96.50;;;;;;4996637;28;20061;-74
2024/01/18 09:36:45;;;;;;;6.85;4.82;;;6.20;96.40;;;;;;4996846;28;20083;-74
2024/01/18 09:39:15;;;;;;;10.43;4.82;;;6.20;96.60;;;;;;5013508;28;20018;-74
2024/01/18 09:41:50;;;;;;;13.90;5.05;;;6.20;96.50;;;;;;5013573;28;20485;-74
2024/01/18 09:44:23;;;;;;;8.68;4.47;;;6.30;96.60;;;;;;5014265;28;20425;-74
2024/01/18 09:46:50;;;;;;;11.15;5.63;;;6.30;96.50;;;;;;5013812;28;20041;-74
2024/01/18 09:49:16;;;;;;;8.55;4.97;;;6.40;96.30;;;;;;5013501;28;20030;-74
2024/01/18 09:51:43;;;;;;;14.07;6.35;;;6.40;96.30;;;;;;5013220;28;20340;-74
2024/01/18 09:54:09;;;;;;;12.27;6.10;;;6.30;95.90;;;;;;5013353;28;20477;-74
2024/01/18 09:56:45;;;;;;;9.95;5.15;;;6.30;96.10;;;;;;4995688;28;20067;-75
2024/01/18 09:59:18;;;;;;;11.05;6.20;;;6.30;96.40;;;;;;4996046;28;20030;-76
2024/01/18 10:01:44;;;;;;;12.73;6.45;;;6.40;96.30;;;;;;5013821;28;20561;-76
2024/01/18 10:04:14;;;;;;;13.35;6.13;;;6.40;96.10;;;;;;4995614;28;20137;-76
2024/01/18 10:06:41;;;;;;;13.77;6.47;;;6.40;96.10;;;;;;4995894;28;20474;-76
2024/01/18 10:09:11;;;;;;;10.57;6.10;;;6.40;96.10;;;;;;5013189;28;20108;-76
2024/01/18 10:11:41;;;;;;;10.98;6.00;;;6.50;96.10;;;;;;5013329;28;20529;-73
2024/01/18 10:14:07;;;;;;;13.85;6.40;;;6.50;96.00;;;;;;4996308;28;20041;-73
2024/01/18 10:16:38;;;;;;;13.70;5.90;;;6.60;96.00;;;;;;5012819;28;20443;-73
2024/01/18 10:19:05;;;;;;;8.80;5.30;;;6.70;95.90;;;;;;5013991;28;20021;-74
2024/01/18 10:21:36;;;;;;;9.15;5.20;;;6.70;95.80;;;;;;4980557;28;20048;-73
2024/01/18 10:24:06;;;;;;;8.43;3.30;;;6.70;95.70;;;;;;4998681;28;20124;-73
2024/01/18 10:26:33;;;;;;;10.25;2.38;;;6.80;95.30;;;;;;5016808;28;20032;-73
2024/01/18 10:28:59;;;;;;;5.60;2.10;;;6.80;94.90;;;;;;5015531;28;20029;-73
2024/01/18 10:31:25;;;;;;;5.22;0.63;;;6.80;95.10;;;;;;5013882;28;20030;-73
2024/01/18 10:33:51;;;;;;;1.73;0.63;;;7.00;94.90;;;;;;4996415;28;20029;-73
2024/01/18 10:36:18;;;;;;;3.97;0.90;;;7.00;94.60;;;;;;4964693;28;20029;-73
2024/01/18 10:38:43;;;;;;;4.75;0.75;;;7.20;94.50;;;;;;4999403;28;20030;-72
2024/01/18 10:41:10;;;;;;;5.65;1.30;;;7.30;94.40;;;;;;5017381;28;20037;-73
2024/01/18 10:43:36;;;;;;;2.80;1.05;;;7.40;94.20;;;;;;4999555;28;20025;-72
2024/01/18 10:46:03;;;;;;;5.75;1.25;;;7.50;94.00;;;;;;5017517;28;20034;-72
2024/01/18 10:48:35;;;;;;;4.80;1.25;;;7.50;93.70;;;;;;5017157;28;20030;-72
2024/01/18 10:51:04;;;;;;;4.68;1.55;;;7.70;93.40;;;;;;5016582;28;20034;-72
2024/01/18 10:53:33;;;;;;;4.57;1.55;;;7.80;93.10;;;;;;4999236;28;20069;-72
2024/01/18 10:56:00;;;;;;;4.50;2.22;;;7.70;92.20;;;;;;4999200;28;20034;-72
2024/01/18 10:58:27;;;;;;;3.45;1.40;;;7.80;92.20;;;;;;4999324;28;20022;-73
2024/01/18 11:00:53;;;;;;;6.10;1.40;;;7.80;92.40;;;;;;4998933;28;20037;-73
2024/01/18 11:03:18;;;;;;;5.45;2.25;;;7.90;92.40;;;;;;5016667;28;20025;-73
2024/01/18 11:05:51;;;;;;;5.30;1.80;;;8.00;91.70;;;;;;4998671;28;20038;-72
2024/01/18 11:08:17;;;;;;;7.03;1.75;;;8.00;91.60;;;;;;4999692;28;20128;-72
2024/01/18 11:10:47;;;;;;;5.00;1.55;;;8.10;90.70;;;;;;5016146;28;20042;-72
2024/01/18 11:13:17;;;;;;;3.85;1.33;;;8.00;90.50;;;;;;4983103;28;20422;-72
2024/01/18 11:15:44;;;;;;;3.88;1.77;;;8.00;90.60;;;;;;5016585;28;20028;-74
2024/01/18 11:18:14;;;;;;;4.40;1.75;;;8.00;90.80;;;;;;4982813;28;20112;-73
2024/01/18 11:20:58;;;;;;;5.63;1.75;;;8.10;90.50;;;;;;5016225;28;20034;-77
2024/01/18 11:23:28;;;;;;;4.93;1.40;;;8.10;90.30;;;;;;5016173;28;20022;-76
2024/01/18 11:25:54;;;;;;;3.72;1.55;;;8.20;89.80;;;;;;4999351;28;20030;-75
2024/01/18 11:28:25;;;;;;;4.15;1.98;;;8.10;89.30;;;;;;5018158;28;20093;-78
2024/01/18 11:30:51;;;;;;;4.57;1.42;;;8.20;89.90;;;;;;4999339;28;20033;-76
2024/01/18 11:33:16;;;;;;;5.57;1.58;;;8.30;89.70;;;;;;4981471;28;20477;-75
2024/01/18 11:35:42;;;;;;;3.15;1.40;;;8.30;88.70;;;;;;4999620;28;20489;-76
2024/01/18 11:38:25;;;;;;;4.68;1.75;;;8.30;88.40;;;;;;4981849;28;20037;-76
2024/01/18 11:41:26;;;;;;;3.97;1.63;;;8.30;87.90;;;;;;4997988;28;20390;-75
2024/01/18 11:43:57;;;;;;;5.90;1.23;;;8.20;87.10;;;;;;4984465;28;20038;-75
2024/01/18 11:46:37;;;;;;;5.40;1.48;;;8.10;86.30;;;;;;4998257;28;20034;-75
2024/01/18 11:49:04;;;;;;;5.93;1.60;;;8.00;85.80;;;;;;4981675;28;20038;-75
2024/01/18 11:51:29;;;;;;;5.18;1.67;;;7.80;85.90;;;;;;4982161;28;20069;-75
2024/01/18 11:54:02;;;;;;;7.00;1.15;;;7.70;85.00;;;;;;5015507;28;20029;-75
2024/01/18 11:56:29;;;;;;;7.10;1.55;;;7.60;85.80;;;;;;4998118;28;20116;-74
2024/01/18 11:58:58;;;;;;;6.60;1.13;;;7.70;86.70;;;;;;4997812;28;20038;-75
2024/01/18 12:01:24;;;;;;;6.07;1.40;;;7.70;86.50;;;;;;4981521;28;20034;-74
2024/01/18 12:03:52;;;;;;;6.40;0.93;;;7.70;86.70;;;;;;4997826;28;20382;-74
2024/01/18 12:06:18;;;;;;;6.95;0.95;;;7.70;85.30;;;;;;4981609;28;20129;-75
2024/01/18 12:08:44;;;;;;;3.35;1.38;;;7.60;85.40;;;;;;4997753;28;20123;-75
2024/01/18 12:11:11;;;;;;;4.68;0.70;;;7.60;85.40;;;;;;4997114;28;20053;-75
2024/01/18 12:13:37;;;;;;;3.42;1.05;;;7.50;85.70;;;;;;4997648;28;20121;-75
2024/01/18 12:16:04;;;;;;;3.90;0.88;;;7.40;86.30;;;;;;4997794;28;20113;-75
2024/01/18 12:18:40;;;;;;;3.63;0.70;;;7.20;86.00;;;;;;4997487;28;20084;-75
2024/01/18 12:21:06;;;;;;;4.97;0.80;;;7.10;87.00;;;;;;5015034;28;20053;-75
2024/01/18 12:23:32;;;;;;;8.13;1.38;;;7.00;87.50;;;;;;5015425;28;20025;-75
2024/01/18 12:25:58;;;;;;;3.92;1.52;;;7.00;88.00;;;;;;4997344;28;20430;-75
2024/01/18 12:28:25;;;;;;;4.38;1.15;;;7.00;88.80;;;;;;4997301;28;20042;-75
2024/01/18 12:30:51;;;;;;;3.67;0.98;;;7.00;89.40;;;;;;4981333;28;20034;-75
2024/01/18 12:33:17;;;;;;;3.78;1.20;;;6.90;89.50;;;;;;4980799;28;20087;-75
2024/01/18 12:35:43;;;;;;;8.13;1.13;;;7.00;90.10;;;;;;5014611;28;20093;-75
2024/01/18 12:38:08;;;;;;;6.57;1.00;;;7.10;90.20;;;;;;4981476;28;20056;-75
2024/01/18 12:40:34;;;;;;;9.43;0.93;;;7.20;90.00;;;;;;5014740;28;20029;-75
2024/01/18 12:43:03;;;;;;;3.28;1.10;;;7.30;90.10;;;;;;5014553;28;20030;-76
2024/01/18 12:45:29;;;;;;;6.65;0.88;;;7.30;90.30;;;;;;4997402;28;20060;-75